createdAt,value
2019-02-16T00:05:03.235Z,23.6
2019-02-16T00:20:03.214Z,23.6
2019-02-16T00:35:02.755Z,23.6
2019-02-16T00:50:03.389Z,23.6
2019-02-16T01:05:03.192Z,23.5
2019-02-16T01:20:03.061Z,23.5
2019-02-16T01:35:02.562Z,23.5
2019-02-16T01:50:03.465Z,23.4
2019-02-16T02:05:02.979Z,23.4
2019-02-16T02:20:02.757Z,23.4
2019-02-16T02:35:03.357Z,23.4
2019-02-16T02:50:03.017Z,23.3
2019-02-16T03:05:03.687Z,23.3
2019-02-16T03:20:03.478Z,23.2
2019-02-16T03:35:03.082Z,23.2
2019-02-16T03:50:03.044Z,23.2
2019-02-16T04:05:02.849Z,23.2
2019-02-16T04:20:02.822Z,23.2
2019-02-16T04:35:03.454Z,23.2
2019-02-16T04:50:03.750Z,23.2
2019-02-16T05:05:03.192Z,23.2
2019-02-16T05:20:03.174Z,23.2
2019-02-16T05:35:03.239Z,23.2
2019-02-16T05:50:03.002Z,23.3
2019-02-16T06:05:03.809Z,23.3
2019-02-16T06:20:04.157Z,23.3
2019-02-16T06:35:03.185Z,23.3
2019-02-16T06:50:03.144Z,23.3
2019-02-16T07:05:03.977Z,23.3
2019-02-16T07:20:03.430Z,23.3
2019-02-16T07:35:04.103Z,23.4
2019-02-16T07:50:03.410Z,23.4
2019-02-16T08:05:02.590Z,23.4
2019-02-16T08:20:04.051Z,23.6
2019-02-16T08:35:02.782Z,23.6
2019-02-16T08:50:03.907Z,23.7
2019-02-16T09:05:03.735Z,23.7
2019-02-16T09:20:04.557Z,23.7
2019-02-16T09:35:03.979Z,23.8
2019-02-16T09:50:03.264Z,23.8
2019-02-16T10:05:03.916Z,23.8
2019-02-16T10:20:03.870Z,23.8
2019-02-16T10:35:03.124Z,23.8
2019-02-16T10:50:02.771Z,23.8
2019-02-16T11:05:03.155Z,23.8
2019-02-16T11:20:03.427Z,23.8
2019-02-16T11:35:03.405Z,23.8
2019-02-16T11:50:03.831Z,23.8
2019-02-16T12:05:02.879Z,23.8
2019-02-16T12:20:03.224Z,23.8
2019-02-16T12:35:03.248Z,23.8
2019-02-16T12:50:03.531Z,23.8
2019-02-16T13:05:03.009Z,23.9
2019-02-16T13:20:03.155Z,23.9
2019-02-16T13:35:03.208Z,23.9
2019-02-16T13:50:03.851Z,24
2019-02-16T14:05:03.931Z,24
2019-02-16T14:20:03.377Z,24.1
2019-02-16T14:35:03.064Z,24.1
2019-02-16T14:50:04.076Z,24.2
2019-02-16T15:05:03.356Z,24.2
2019-02-16T15:20:03.999Z,24.2
2019-02-16T15:35:03.479Z,24.3
2019-02-16T15:50:03.178Z,24.7
2019-02-16T16:05:03.167Z,24.7
2019-02-16T16:20:03.454Z,24.6
2019-02-16T16:35:03.285Z,24.4
2019-02-16T16:50:03.891Z,24.4
2019-02-16T17:05:03.566Z,24.2
2019-02-16T17:20:04.342Z,24.1
2019-02-16T17:35:03.701Z,23.9
2019-02-16T17:50:03.881Z,23.8
2019-02-16T18:05:03.045Z,23.6
2019-02-16T18:20:03.651Z,23.6
2019-02-16T18:35:03.368Z,23.4
2019-02-16T18:50:04.163Z,23.3
2019-02-16T19:05:03.766Z,23.2
2019-02-16T19:20:04.074Z,23.1
2019-02-16T19:35:03.538Z,23
2019-02-16T19:50:03.720Z,22.9
2019-02-16T20:05:03.640Z,22.9
2019-02-16T20:20:03.273Z,22.8
2019-02-16T20:35:03.607Z,22.7
2019-02-16T20:50:03.954Z,22.7
2019-02-16T21:05:03.487Z,22.7
2019-02-16T21:20:03.987Z,22.7
2019-02-16T21:35:02.692Z,22.7
2019-02-16T21:50:03.717Z,22.7
2019-02-16T22:05:03.764Z,22.7
2019-02-16T22:20:04.128Z,22.8
2019-02-16T22:50:04.755Z,23
2019-02-16T23:05:03.731Z,23
2019-02-16T23:20:03.396Z,23.1
2019-02-16T23:35:03.030Z,23.2
2019-02-16T23:50:03.116Z,23.2
